Beaumont, Kentucky
Current Conditions -  °F | °C
As of 2:55 PM on Tuesday 27 Jan 2015 (Local Time) from KGLW Reporting Station
Overcast Overcast  
Wind Chill: 28°   Ceiling: 1500
Heat Index: 33°   Visibility: 10mi
Dew Point: 29°   Wind: 6mph
Humidity: 87%   Direction: 350°N
Pressure: 30.11"   Gusts: NA
Location:  36.88°N, 85.65°W
Report Text: KGLW 272055Z AUTO 35005KT 10SM BKN015 OVC020 01/M01 A3011 RMK AO2 T00061014
Loading
Personal Weather Stations






























Interactive Weather Map New forecast layout! Learn more

10-Day Weather Forecast

Advertisements
Track Severe Weather on mobile